Terminal Aerodrome Forecast
Issued by NWS

Home | Current Version | Previous Version | Text Only | Print | Product List | Glossary On
Versions: 1 2 3 4 5 6 7 8 9 10 11 12 13 14 15 16 17 18 19 20 21 22 23 24
000
FTUS45 KSLC 251720
TAFOGD
TAF
KOGD 251720Z 2518/2618 16010KT P6SM BKN200
     FM252000 22011G18KT P6SM FEW100 BKN200
     FM260000 30009KT P6SM SCT100 BKN150
     FM260600 17008KT P6SM SCT150=

USA.gov is the U.S. government's official web portal to all federal, state and local government web resources and services.